Time;durP1;ratioP1;P1;durP2;ratioP2;P2;SDS_P1;SDS_P2;PMS_P1;PMS_P2;Temp;Humidity;BMP_temperature;BMP_pressure;BME280_temperature;BME280_humidity;BME280_pressure;Samples;Min_cycle;Max_cycle;Signal;HPM_P1;HPM_P2
2023/01/06 00:00:16;;;;;;;6.25;4.10;;;8.80;74.30;;;;;;5032967;28;20064;-65
2023/01/06 00:02:41;;;;;;;5.65;3.50;;;8.80;74.50;;;;;;5042243;28;20065;-65
2023/01/06 00:05:07;;;;;;;5.53;3.50;;;8.80;74.80;;;;;;5044912;28;20030;-65
2023/01/06 00:07:33;;;;;;;5.72;3.58;;;8.70;74.80;;;;;;5034110;28;20101;-64
2023/01/06 00:09:59;;;;;;;3.67;2.88;;;8.70;75.00;;;;;;5037897;28;20052;-64
2023/01/06 00:12:25;;;;;;;6.28;3.13;;;8.70;75.10;;;;;;5042402;28;20049;-64
2023/01/06 00:14:51;;;;;;;5.80;2.90;;;8.70;75.10;;;;;;5042058;28;20124;-65
2023/01/06 00:17:17;;;;;;;5.15;3.03;;;8.70;75.30;;;;;;5032381;28;20026;-64
2023/01/06 00:19:43;;;;;;;5.35;3.15;;;8.70;75.30;;;;;;5044132;28;20417;-64
2023/01/06 00:22:09;;;;;;;6.70;3.55;;;8.70;75.10;;;;;;5036167;28;20643;-65
2023/01/06 00:24:34;;;;;;;5.47;3.53;;;8.70;74.90;;;;;;5045406;28;20037;-64
2023/01/06 00:27:00;;;;;;;5.45;3.40;;;8.70;74.90;;;;;;5046114;28;20021;-64
2023/01/06 00:29:26;;;;;;;7.15;3.42;;;8.70;74.90;;;;;;5045906;28;20025;-64
2023/01/06 00:31:52;;;;;;;4.88;3.17;;;8.60;74.80;;;;;;5039971;28;20044;-64
2023/01/06 00:34:17;;;;;;;5.22;3.28;;;8.60;74.80;;;;;;5042200;28;20087;-64
2023/01/06 00:36:43;;;;;;;5.57;3.53;;;8.60;74.70;;;;;;5046184;28;20108;-64
2023/01/06 00:39:12;;;;;;;5.13;3.20;;;8.60;74.60;;;;;;5043452;28;20025;-65
2023/01/06 00:44:22;;;;;;;;;;;8.50;74.40;;;;;;5036083;28;20060;-65
2023/01/06 00:46:48;;;;;;;3.95;2.90;;;8.60;74.60;;;;;;5043500;28;20348;-65
2023/01/06 00:49:13;;;;;;;4.53;2.22;;;8.50;74.00;;;;;;5049445;28;20037;-64
2023/01/06 00:51:39;;;;;;;4.63;1.95;;;8.50;74.00;;;;;;5047225;28;20045;-64
2023/01/06 00:54:10;;;;;;;1.63;1.40;;;8.40;74.00;;;;;;5039973;28;20063;-64
2023/01/06 00:56:38;;;;;;;2.40;1.67;;;8.40;74.00;;;;;;5044385;28;20032;-64
2023/01/06 00:59:05;;;;;;;3.42;1.75;;;8.30;74.00;;;;;;5039724;28;20075;-64
2023/01/06 01:01:31;;;;;;;3.03;1.83;;;8.30;73.90;;;;;;5036759;28;20100;-64
2023/01/06 01:03:57;;;;;;;4.05;1.85;;;8.30;74.00;;;;;;5038890;28;20037;-64
2023/01/06 01:06:23;;;;;;;6.97;1.90;;;8.20;74.10;;;;;;5046351;28;20164;-64
2023/01/06 01:08:53;;;;;;;2.92;1.60;;;8.20;74.20;;;;;;5041948;28;20048;-65
2023/01/06 01:14:03;;;;;;;2.65;1.70;;;8.20;74.40;;;;;;5037030;28;20036;-63
2023/01/06 01:16:29;;;;;;;5.80;2.30;;;8.20;74.30;;;;;;5043949;28;20072;-63
2023/01/06 01:18:55;;;;;;;3.25;1.98;;;8.20;74.50;;;;;;4947302;28;20038;-63
2023/01/06 01:21:20;;;;;;;3.78;2.00;;;8.20;74.70;;;;;;5039543;28;20035;-63
2023/01/06 01:23:46;;;;;;;3.08;1.85;;;8.10;74.80;;;;;;5045990;28;20036;-64
2023/01/06 01:26:13;;;;;;;3.80;2.17;;;8.20;75.00;;;;;;5049122;28;20077;-64
2023/01/06 01:28:39;;;;;;;6.05;2.53;;;8.20;75.00;;;;;;5043014;28;20033;-64
2023/01/06 01:31:04;;;;;;;5.40;3.05;;;8.20;75.70;;;;;;5049987;28;20029;-64
2023/01/06 01:33:31;;;;;;;9.65;4.20;;;8.20;75.10;;;;;;5047193;28;20484;-64
2023/01/06 01:35:57;;;;;;;6.22;3.47;;;8.20;75.20;;;;;;5037804;28;20029;-64
2023/01/06 01:38:25;;;;;;;7.55;4.07;;;8.20;75.10;;;;;;5044256;28;20093;-63
2023/01/06 01:40:51;;;;;;;8.07;4.43;;;8.20;75.20;;;;;;5031210;28;20033;-64
2023/01/06 01:43:17;;;;;;;6.60;4.15;;;8.20;75.20;;;;;;5050247;28;20059;-64
2023/01/06 01:45:46;;;;;;;15.75;4.65;;;8.30;75.30;;;;;;5045138;28;20041;-64
2023/01/06 01:48:30;;;;;;;6.38;3.65;;;8.30;75.20;;;;;;5050791;28;20030;-64
2023/01/06 01:50:57;;;;;;;5.00;3.45;;;8.30;75.40;;;;;;5033127;28;20040;-64
2023/01/06 01:53:39;;;;;;;12.13;3.63;;;8.30;75.10;;;;;;5040334;28;20041;-64
2023/01/06 01:56:08;;;;;;;7.97;4.32;;;8.30;75.80;;;;;;5046429;28;20041;-64
2023/01/06 01:58:41;;;;;;;8.25;3.88;;;8.30;75.10;;;;;;5043448;28;20029;-64
2023/01/06 02:01:09;;;;;;;11.33;4.83;;;8.30;75.10;;;;;;5038774;28;20025;-64
2023/01/06 02:03:36;;;;;;;7.97;4.25;;;8.30;75.00;;;;;;5037332;28;20378;-63
2023/01/06 02:06:05;;;;;;;7.00;4.53;;;8.30;75.00;;;;;;5043923;28;20036;-63
2023/01/06 02:08:44;;;;;;;5.95;4.00;;;8.30;75.20;;;;;;5046240;28;20041;-64
2023/01/06 02:11:10;;;;;;;9.13;4.28;;;8.30;75.20;;;;;;5037129;28;20128;-64
2023/01/06 02:13:39;;;;;;;9.55;4.63;;;8.30;75.10;;;;;;5048444;28;20079;-63
2023/01/06 02:16:20;;;;;;;10.93;3.88;;;8.30;75.20;;;;;;5050386;28;20045;-64
2023/01/06 02:19:06;;;;;;;7.10;4.20;;;8.30;75.30;;;;;;5037894;28;20081;-63
2023/01/06 02:21:41;;;;;;;5.68;4.20;;;8.40;75.40;;;;;;5039427;28;20028;-63
2023/01/06 02:24:43;;;;;;;6.22;4.00;;;8.40;75.30;;;;;;5041207;28;20053;-63
2023/01/06 02:27:29;;;;;;;7.82;3.67;;;8.40;75.70;;;;;;5038106;28;20075;-63
2023/01/06 02:30:29;;;;;;;5.13;3.60;;;8.40;75.30;;;;;;5046047;28;20037;-63
2023/01/06 02:33:20;;;;;;;8.43;3.40;;;8.40;75.70;;;;;;5041518;28;20041;-64
2023/01/06 02:35:53;;;;;;;4.90;3.08;;;8.40;75.50;;;;;;5047554;28;20532;-64
2023/01/06 02:38:54;;;;;;;7.53;3.47;;;8.40;75.20;;;;;;5044203;28;20041;-64
2023/01/06 02:41:42;;;;;;;6.25;3.63;;;8.40;75.60;;;;;;5042702;28;20029;-63
2023/01/06 02:44:25;;;;;;;7.70;3.42;;;8.50;75.70;;;;;;5041175;28;20093;-64
2023/01/06 02:47:11;;;;;;;5.30;3.53;;;8.50;75.50;;;;;;5045495;28;20021;-64
2023/01/06 02:50:14;;;;;;;5.40;3.20;;;8.50;75.50;;;;;;5041746;28;20029;-63
2023/01/06 02:52:57;;;;;;;4.00;2.70;;;8.50;75.70;;;;;;5045985;28;20052;-63
2023/01/06 02:55:43;;;;;;;5.88;2.97;;;8.50;75.40;;;;;;5038858;28;20113;-63
2023/01/06 02:58:23;;;;;;;8.77;2.85;;;8.50;75.50;;;;;;5049046;28;20025;-64
2023/01/06 03:00:56;;;;;;;3.50;2.95;;;8.50;75.40;;;;;;5038890;28;20024;-63
2023/01/06 03:03:24;;;;;;;3.78;2.63;;;8.60;75.40;;;;;;5043277;28;20507;-63
2023/01/06 03:05:58;;;;;;;4.93;2.40;;;8.60;75.40;;;;;;5047983;28;20030;-63
2023/01/06 03:08:27;;;;;;;2.13;1.75;;;8.60;75.60;;;;;;5037355;28;20029;-63
2023/01/06 03:10:55;;;;;;;3.55;2.70;;;8.60;75.80;;;;;;5053915;28;20050;-63
2023/01/06 03:13:31;;;;;;;3.95;2.53;;;8.60;75.40;;;;;;5043397;28;20030;-63
2023/01/06 03:15:56;;;;;;;3.60;2.60;;;8.60;75.40;;;;;;5043821;28;20033;-63
2023/01/06 03:18:22;;;;;;;4.90;2.95;;;8.60;75.40;;;;;;5040668;28;20030;-63
2023/01/06 03:20:51;;;;;;;4.47;3.00;;;8.60;75.50;;;;;;5048970;28;20029;-63
2023/01/06 03:23:18;;;;;;;4.75;2.63;;;8.80;76.40;;;;;;5042081;28;20029;-63
2023/01/06 03:25:43;;;;;;;3.95;2.50;;;8.70;75.60;;;;;;5044425;28;20542;-63
2023/01/06 03:28:09;;;;;;;4.90;2.92;;;8.70;75.50;;;;;;5040114;28;20021;-63
2023/01/06 03:31:07;;;;;;;4.38;2.55;;;8.60;75.40;;;;;;5049334;28;20041;-63
2023/01/06 03:33:48;;;;;;;4.00;2.90;;;8.70;75.90;;;;;;5037992;28;20565;-63
2023/01/06 03:36:32;;;;;;;5.47;2.45;;;8.70;75.60;;;;;;5044003;28;20029;-62
2023/01/06 03:38:58;;;;;;;2.60;2.17;;;8.70;75.70;;;;;;5045113;28;20079;-65
2023/01/06 03:44:48;;;;;;;4.65;2.67;;;8.70;75.50;;;;;;5037441;28;20029;-64
2023/01/06 03:47:23;;;;;;;5.35;2.78;;;8.80;75.60;;;;;;5040576;28;20040;-65
2023/01/06 03:49:59;;;;;;;5.55;2.67;;;8.70;75.40;;;;;;5040462;28;20021;-65
2023/01/06 03:52:30;;;;;;;3.40;2.47;;;8.80;75.70;;;;;;5036042;28;20045;-65
2023/01/06 03:55:12;;;;;;;3.50;2.50;;;8.80;75.70;;;;;;5044450;28;20042;-65
2023/01/06 03:57:46;;;;;;;7.05;2.58;;;8.80;75.70;;;;;;5045043;28;20025;-64
2023/01/06 04:00:15;;;;;;;3.55;2.63;;;8.80;75.60;;;;;;5038470;28;20373;-65
2023/01/06 04:02:41;;;;;;;5.30;2.67;;;8.80;75.60;;;;;;5052361;28;20046;-65
2023/01/06 04:05:16;;;;;;;3.75;2.42;;;8.80;75.60;;;;;;5043786;28;20025;-64
2023/01/06 04:07:43;;;;;;;3.92;2.72;;;8.80;75.80;;;;;;5037664;28;20108;-64
2023/01/06 04:10:10;;;;;;;4.63;2.63;;;8.80;75.70;;;;;;5047155;28;20044;-64
2023/01/06 04:12:38;;;;;;;4.38;2.75;;;8.80;75.80;;;;;;5033183;28;20022;-64
2023/01/06 04:15:07;;;;;;;5.20;2.70;;;8.90;75.80;;;;;;5048175;28;20036;-65
2023/01/06 04:17:33;;;;;;;4.82;3.20;;;8.90;75.90;;;;;;5035127;28;20060;-64
2023/01/06 04:20:00;;;;;;;7.32;3.38;;;8.80;75.70;;;;;;5047177;28;20075;-64
2023/01/06 04:22:25;;;;;;;7.45;3.67;;;8.90;75.80;;;;;;5041604;28;20091;-64
2023/01/06 04:24:51;;;;;;;6.93;4.22;;;8.90;75.80;;;;;;5037112;28;20053;-64
2023/01/06 04:27:16;;;;;;;7.22;4.32;;;8.90;75.80;;;;;;5045071;28;20025;-64
2023/01/06 04:29:42;;;;;;;9.32;3.83;;;8.90;75.70;;;;;;5039644;28;20022;-64
2023/01/06 04:32:08;;;;;;;7.63;3.63;;;8.90;75.80;;;;;;5044472;28;20036;-65
2023/01/06 04:34:33;;;;;;;5.55;3.38;;;8.90;75.90;;;;;;5043573;28;20045;-64
2023/01/06 04:36:59;;;;;;;6.88;3.08;;;8.90;75.90;;;;;;5035997;28;20040;-64
2023/01/06 04:39:25;;;;;;;7.10;3.58;;;8.90;75.90;;;;;;5028382;28;20034;-65
2023/01/06 04:41:50;;;;;;;4.97;3.00;;;8.90;75.90;;;;;;5038800;28;20136;-64
2023/01/06 04:44:16;;;;;;;7.28;3.70;;;8.90;75.80;;;;;;5041542;28;20120;-64
2023/01/06 04:46:41;;;;;;;6.13;3.35;;;8.90;75.70;;;;;;5042120;28;20056;-65
2023/01/06 04:49:07;;;;;;;5.93;3.08;;;8.90;75.70;;;;;;5050434;28;20122;-64
2023/01/06 04:51:33;;;;;;;5.57;3.20;;;9.00;75.70;;;;;;5041334;28;21418;-64
2023/01/06 04:53:59;;;;;;;4.78;3.38;;;8.90;75.70;;;;;;5045205;28;20021;-64
2023/01/06 04:56:24;;;;;;;5.63;2.90;;;8.90;75.60;;;;;;5043302;28;20495;-65
2023/01/06 04:58:54;;;;;;;6.28;3.47;;;8.90;75.50;;;;;;5049378;28;20084;-64
2023/01/06 05:01:21;;;;;;;5.22;3.38;;;8.90;75.50;;;;;;5053528;28;20040;-65
2023/01/06 05:03:47;;;;;;;6.65;3.28;;;8.90;75.30;;;;;;5053613;28;20056;-64
2023/01/06 05:06:12;;;;;;;4.75;3.25;;;8.80;75.10;;;;;;5043607;28;20032;-65
2023/01/06 05:08:40;;;;;;;4.47;2.75;;;8.80;75.00;;;;;;5044215;28;20082;-65
2023/01/06 05:11:10;;;;;;;4.45;2.78;;;8.80;74.90;;;;;;5048131;28;20040;-65
2023/01/06 05:13:36;;;;;;;3.67;2.92;;;8.70;74.80;;;;;;5047569;28;20072;-64
2023/01/06 05:16:22;;;;;;;3.80;2.60;;;8.70;74.90;;;;;;5043918;28;20029;-64
2023/01/06 05:18:48;;;;;;;4.18;2.72;;;8.70;75.20;;;;;;5037174;28;20044;-64
2023/01/06 05:21:15;;;;;;;3.53;2.67;;;8.60;74.90;;;;;;5044468;28;20065;-64
2023/01/06 05:23:40;;;;;;;4.28;2.88;;;8.50;74.70;;;;;;5050550;28;20021;-65
2023/01/06 05:26:08;;;;;;;5.30;2.30;;;8.50;74.60;;;;;;5045790;28;20041;-64
2023/01/06 05:28:34;;;;;;;2.60;2.28;;;8.40;74.60;;;;;;5044359;28;20037;-64
2023/01/06 05:31:01;;;;;;;3.40;2.45;;;8.40;74.70;;;;;;5062591;28;20053;-64
2023/01/06 05:33:27;;;;;;;4.55;2.60;;;8.40;74.80;;;;;;5050876;28;20055;-64
2023/01/06 05:36:05;;;;;;;3.13;2.58;;;8.30;74.60;;;;;;5047354;28;20026;-65
2023/01/06 05:38:31;;;;;;;4.50;2.70;;;8.30;74.40;;;;;;5045521;28;20037;-64
2023/01/06 05:40:56;;;;;;;4.63;2.70;;;8.20;74.30;;;;;;5032689;28;20033;-64
2023/01/06 05:43:23;;;;;;;4.13;2.80;;;8.20;74.30;;;;;;5044357;28;20034;-64
2023/01/06 05:45:49;;;;;;;6.00;2.47;;;8.20;74.50;;;;;;5054233;28;20021;-64
2023/01/06 05:48:15;;;;;;;3.70;2.58;;;8.20;74.60;;;;;;5047959;28;20392;-64
2023/01/06 05:50:41;;;;;;;3.72;2.45;;;8.10;74.60;;;;;;5045656;28;20041;-65
2023/01/06 05:53:07;;;;;;;3.28;2.55;;;8.10;74.50;;;;;;5042784;28;20506;-64
2023/01/06 05:55:32;;;;;;;3.78;2.55;;;8.00;74.50;;;;;;5047435;28;20029;-64
2023/01/06 05:57:58;;;;;;;3.88;2.75;;;8.00;74.60;;;;;;5045131;28;20043;-64
2023/01/06 06:00:24;;;;;;;4.97;3.03;;;8.00;74.80;;;;;;5043425;28;20030;-64
2023/01/06 06:02:49;;;;;;;8.95;3.10;;;7.90;74.80;;;;;;5048590;28;20135;-64
2023/01/06 06:05:15;;;;;;;7.30;2.88;;;7.90;74.90;;;;;;5048777;28;20020;-64
2023/01/06 06:07:41;;;;;;;10.25;3.53;;;7.90;75.10;;;;;;5054678;28;20033;-64
2023/01/06 06:10:08;;;;;;;16.83;4.00;;;7.90;75.40;;;;;;5046373;28;20029;-64
2023/01/06 06:12:34;;;;;;;11.82;4.38;;;7.90;75.50;;;;;;5043357;28;20089;-64
2023/01/06 06:14:59;;;;;;;9.48;4.45;;;7.90;75.70;;;;;;5041275;28;20064;-64
2023/01/06 06:17:25;;;;;;;20.30;4.15;;;7.90;76.00;;;;;;5046587;28;20496;-64
2023/01/06 06:19:52;;;;;;;7.32;4.13;;;7.90;76.10;;;;;;5041166;28;20104;-64
2023/01/06 06:22:17;;;;;;;7.32;3.95;;;7.90;76.30;;;;;;5039839;28;20022;-64
2023/01/06 06:24:43;;;;;;;8.30;3.92;;;8.00;76.50;;;;;;5043477;28;20106;-65
2023/01/06 06:27:09;;;;;;;6.95;3.90;;;8.00;76.70;;;;;;5046916;28;20033;-64
2023/01/06 06:29:34;;;;;;;4.97;3.65;;;8.00;76.90;;;;;;5041266;28;20040;-64
2023/01/06 06:32:00;;;;;;;10.10;4.10;;;8.10;77.20;;;;;;5040363;28;20029;-64
2023/01/06 06:34:26;;;;;;;6.85;4.18;;;8.10;77.20;;;;;;5036098;28;20094;-64
2023/01/06 06:36:51;;;;;;;11.15;3.75;;;8.10;77.20;;;;;;5036738;28;20034;-64
2023/01/06 06:39:17;;;;;;;5.20;3.45;;;8.20;77.50;;;;;;5050366;28;20044;-64
2023/01/06 06:41:43;;;;;;;4.55;3.33;;;8.20;77.50;;;;;;5041266;28;20033;-64
2023/01/06 06:44:08;;;;;;;6.70;3.50;;;8.20;77.50;;;;;;5045180;28;20045;-64
2023/01/06 06:46:34;;;;;;;7.18;3.72;;;8.30;77.60;;;;;;5048005;28;20063;-64
2023/01/06 06:48:59;;;;;;;5.25;3.70;;;8.30;77.70;;;;;;5050342;28;20056;-65
2023/01/06 06:51:25;;;;;;;4.38;3.55;;;8.30;77.70;;;;;;5043843;28;20053;-64
2023/01/06 06:53:51;;;;;;;4.38;3.67;;;8.40;77.80;;;;;;5044487;28;20044;-64
2023/01/06 06:56:18;;;;;;;4.63;4.07;;;8.40;77.90;;;;;;5047868;28;20021;-64
2023/01/06 06:58:44;;;;;;;6.38;4.00;;;8.40;77.90;;;;;;5041449;28;20017;-64
2023/01/06 07:01:13;;;;;;;7.57;4.38;;;8.50;78.00;;;;;;5037268;28;20025;-64
2023/01/06 07:03:39;;;;;;;12.63;3.88;;;8.50;78.00;;;;;;5044702;28;20089;-64
2023/01/06 07:06:07;;;;;;;4.65;3.53;;;8.50;77.90;;;;;;5041413;28;20033;-64
2023/01/06 07:08:34;;;;;;;5.00;4.13;;;8.50;77.90;;;;;;5048945;28;20601;-65
2023/01/06 07:11:00;;;;;;;5.25;3.63;;;8.60;78.00;;;;;;5040715;28;20041;-64
2023/01/06 07:13:26;;;;;;;6.97;3.78;;;8.60;77.90;;;;;;5041839;28;20026;-64
2023/01/06 07:15:52;;;;;;;4.65;4.00;;;8.60;77.90;;;;;;5033319;28;20057;-64
2023/01/06 07:18:18;;;;;;;4.32;3.85;;;8.60;77.70;;;;;;5049718;28;20021;-64
2023/01/06 07:20:48;;;;;;;10.88;4.00;;;8.70;77.70;;;;;;5047145;28;20029;-64
2023/01/06 07:23:14;;;;;;;14.98;4.28;;;8.70;77.80;;;;;;5047906;28;20026;-64
2023/01/06 07:25:40;;;;;;;4.65;3.95;;;8.70;77.50;;;;;;5044059;28;20030;-64
2023/01/06 07:28:07;;;;;;;7.63;3.80;;;8.70;77.60;;;;;;5046529;28;20056;-65
2023/01/06 07:30:33;;;;;;;4.18;3.20;;;8.60;77.80;;;;;;5040686;28;20036;-65
2023/01/06 07:32:59;;;;;;;3.17;2.88;;;8.70;77.80;;;;;;5039321;28;20052;-65
2023/01/06 07:35:25;;;;;;;3.42;3.10;;;8.70;77.90;;;;;;5043725;28;20089;-65
2023/01/06 07:37:51;;;;;;;4.28;3.78;;;8.70;78.00;;;;;;5048339;28;20479;-65
2023/01/06 07:40:17;;;;;;;4.15;3.38;;;8.70;78.10;;;;;;5039382;28;20021;-65
2023/01/06 07:42:43;;;;;;;3.53;3.05;;;8.70;78.10;;;;;;5049185;28;20116;-65
2023/01/06 07:45:10;;;;;;;3.70;2.97;;;8.70;77.90;;;;;;5039554;28;20080;-65
2023/01/06 07:47:35;;;;;;;3.42;3.13;;;8.70;77.90;;;;;;5037382;28;20037;-65
2023/01/06 07:50:02;;;;;;;3.30;3.00;;;8.70;77.70;;;;;;5037665;28;20045;-65
2023/01/06 07:52:27;;;;;;;4.32;3.20;;;8.70;77.70;;;;;;5039241;28;20083;-65
2023/01/06 07:54:55;;;;;;;3.30;3.00;;;8.70;77.70;;;;;;5053640;28;20056;-65
2023/01/06 07:57:22;;;;;;;3.65;3.20;;;8.80;77.90;;;;;;5042955;28;20100;-65
2023/01/06 07:59:47;;;;;;;3.28;2.97;;;8.80;78.20;;;;;;5040481;28;20427;-65
2023/01/06 08:02:13;;;;;;;2.85;2.65;;;8.80;78.20;;;;;;5049166;28;20060;-65
2023/01/06 08:04:39;;;;;;;2.70;2.50;;;8.80;78.10;;;;;;5039154;28;20029;-65
2023/01/06 08:07:04;;;;;;;3.53;2.55;;;8.90;78.10;;;;;;5043287;28;20032;-65
2023/01/06 08:09:30;;;;;;;2.92;2.30;;;8.90;78.10;;;;;;5037466;28;20029;-64
2023/01/06 08:11:56;;;;;;;3.00;2.70;;;8.90;77.80;;;;;;5047040;28;20038;-64
2023/01/06 08:14:22;;;;;;;2.70;2.40;;;9.00;77.70;;;;;;5041676;28;20026;-64
2023/01/06 08:16:48;;;;;;;2.13;1.92;;;9.00;77.60;;;;;;5045092;28;20056;-65
2023/01/06 08:19:13;;;;;;;4.40;2.05;;;9.00;77.40;;;;;;5042869;28;20029;-63
2023/01/06 08:21:39;;;;;;;2.30;2.10;;;9.00;77.40;;;;;;5037463;28;20029;-64
2023/01/06 08:24:05;;;;;;;2.15;1.95;;;9.00;77.50;;;;;;5043670;28;20025;-64
2023/01/06 08:26:31;;;;;;;1.92;1.83;;;9.00;77.40;;;;;;5047653;28;20104;-64
2023/01/06 08:28:56;;;;;;;2.03;1.92;;;9.00;77.20;;;;;;5039834;28;20042;-65
2023/01/06 08:31:23;;;;;;;2.53;1.77;;;9.00;77.30;;;;;;5041259;28;20045;-64
2023/01/06 08:33:50;;;;;;;1.85;1.75;;;9.00;77.20;;;;;;5041958;28;20146;-64
2023/01/06 08:36:18;;;;;;;2.20;2.00;;;9.10;77.20;;;;;;5057694;28;20029;-64
2023/01/06 08:38:44;;;;;;;1.80;1.70;;;9.10;77.30;;;;;;5047331;28;20034;-64
2023/01/06 08:41:12;;;;;;;2.50;2.22;;;9.10;77.10;;;;;;5052712;28;20055;-65
2023/01/06 08:43:39;;;;;;;2.25;1.80;;;9.10;76.90;;;;;;5048093;28;20021;-64
2023/01/06 08:46:07;;;;;;;1.92;1.83;;;9.10;77.10;;;;;;5055560;28;20025;-64
2023/01/06 08:48:34;;;;;;;2.13;1.92;;;9.10;77.10;;;;;;5046900;28;20044;-64
2023/01/06 08:51:18;;;;;;;2.13;1.92;;;9.10;77.30;;;;;;5055979;28;20064;-64
2023/01/06 08:53:44;;;;;;;1.93;1.77;;;9.10;77.60;;;;;;5048489;28;20057;-64
2023/01/06 08:56:15;;;;;;;2.53;2.00;;;9.20;77.60;;;;;;5046696;28;20361;-64
2023/01/06 08:58:42;;;;;;;2.33;2.13;;;9.20;77.70;;;;;;5053042;28;20023;-64
2023/01/06 09:01:18;;;;;;;2.20;2.00;;;9.30;77.70;;;;;;5048147;28;20033;-64
2023/01/06 09:03:46;;;;;;;2.42;2.22;;;9.30;77.80;;;;;;5045982;28;20109;-64
2023/01/06 09:06:16;;;;;;;2.45;2.22;;;9.40;77.70;;;;;;5042147;28;20030;-64
2023/01/06 09:08:41;;;;;;;2.92;2.50;;;9.50;77.70;;;;;;5057116;28;20036;-65
2023/01/06 09:11:09;;;;;;;2.85;2.42;;;9.50;77.50;;;;;;5039399;28;20037;-63
2023/01/06 09:13:36;;;;;;;2.47;2.17;;;9.60;77.50;;;;;;5047333;28;20077;-64
2023/01/06 09:16:09;;;;;;;2.00;1.80;;;9.60;77.20;;;;;;5047531;28;20032;-64
2023/01/06 09:18:36;;;;;;;4.60;2.05;;;9.70;77.20;;;;;;5045159;28;20053;-64
2023/01/06 09:21:02;;;;;;;5.10;3.65;;;9.70;76.90;;;;;;5046186;28;20100;-65
2023/01/06 09:23:28;;;;;;;3.05;2.60;;;9.70;76.50;;;;;;5051510;28;20039;-64
2023/01/06 09:25:55;;;;;;;2.92;2.60;;;9.70;76.70;;;;;;5050804;28;20116;-65
2023/01/06 09:28:21;;;;;;;2.67;2.35;;;9.70;76.90;;;;;;5047433;28;20085;-65
2023/01/06 09:30:48;;;;;;;2.90;2.22;;;9.70;77.00;;;;;;5048799;28;20057;-65
2023/01/06 09:33:14;;;;;;;2.80;2.40;;;9.80;77.30;;;;;;5048395;28;20022;-65
2023/01/06 09:35:42;;;;;;;2.25;1.90;;;9.80;77.10;;;;;;5046052;28;20028;-64
2023/01/06 09:38:12;;;;;;;1.80;1.70;;;9.90;77.30;;;;;;5043993;28;20108;-64
2023/01/06 09:41:05;;;;;;;2.30;2.03;;;9.90;77.30;;;;;;5045086;28;20025;-65
2023/01/06 09:44:01;;;;;;;3.08;2.38;;;10.00;77.40;;;;;;5050396;28;20041;-64
2023/01/06 09:46:33;;;;;;;2.95;2.00;;;10.10;77.30;;;;;;5044994;28;20054;-64
2023/01/06 09:49:16;;;;;;;2.30;2.10;;;10.20;77.00;;;;;;5045494;28;20044;-64
2023/01/06 09:51:43;;;;;;;2.70;2.20;;;10.30;76.90;;;;;;5050739;28;20058;-65
2023/01/06 09:54:22;;;;;;;2.42;2.08;;;10.30;76.50;;;;;;5044003;28;20036;-64
2023/01/06 09:56:59;;;;;;;1.80;1.70;;;10.30;76.50;;;;;;5044657;28;20025;-64
2023/01/06 09:59:47;;;;;;;1.90;1.80;;;10.40;76.50;;;;;;5053494;28;20566;-64
2023/01/06 10:02:22;;;;;;;1.50;1.33;;;10.40;76.50;;;;;;5039172;28;20036;-65
2023/01/06 10:04:47;;;;;;;1.73;1.63;;;10.50;76.50;;;;;;5034900;28;20378;-64
2023/01/06 10:07:38;;;;;;;2.50;1.40;;;10.50;77.10;;;;;;5050183;28;20051;-64
2023/01/06 10:10:39;;;;;;;1.90;1.70;;;10.60;76.20;;;;;;5041072;28;20044;-65
2023/01/06 10:13:23;;;;;;;2.28;1.38;;;10.60;76.20;;;;;;4996389;28;20233;-64
2023/01/06 10:16:10;;;;;;;1.50;1.40;;;10.60;76.20;;;;;;4998475;28;20042;-64
2023/01/06 10:19:02;;;;;;;2.13;1.70;;;10.70;76.10;;;;;;4997316;28;20059;-64
2023/01/06 10:21:46;;;;;;;1.63;1.50;;;10.70;76.10;;;;;;5001720;28;20034;-64
2023/01/06 10:24:29;;;;;;;1.85;1.67;;;10.80;76.20;;;;;;4996317;28;20066;-65
2023/01/06 10:27:17;;;;;;;1.75;1.55;;;10.80;76.20;;;;;;4998342;28;20049;-64
2023/01/06 10:29:43;;;;;;;2.00;1.75;;;10.80;76.00;;;;;;5002922;28;20061;-64
2023/01/06 10:32:15;;;;;;;1.55;1.45;;;10.90;75.90;;;;;;5000086;28;20046;-64
2023/01/06 10:34:45;;;;;;;1.42;1.33;;;10.90;75.90;;;;;;5006271;28;20026;-65
2023/01/06 10:37:16;;;;;;;1.95;1.75;;;10.90;76.00;;;;;;4998416;28;20034;-65
2023/01/06 10:39:45;;;;;;;2.17;1.67;;;11.00;76.10;;;;;;5001484;28;20097;-65
2023/01/06 10:42:57;;;;;;;3.70;1.90;;;11.00;76.70;;;;;;5004945;28;20069;-65
2023/01/06 10:45:27;;;;;;;2.00;1.60;;;11.00;75.80;;;;;;4925143;29;20145;-66
2023/01/06 10:47:53;;;;;;;2.15;1.95;;;11.10;75.60;;;;;;4921093;29;20048;-64
2023/01/06 10:50:20;;;;;;;2.08;1.88;;;11.10;75.50;;;;;;4954400;28;20051;-64
2023/01/06 10:52:46;;;;;;;1.88;1.60;;;11.20;75.40;;;;;;4958734;28;20039;-66
2023/01/06 10:55:31;;;;;;;2.05;1.67;;;11.10;75.30;;;;;;4970436;28;20091;-66
2023/01/06 10:58:04;;;;;;;3.00;1.67;;;11.10;75.40;;;;;;4979174;28;20019;-65
2023/01/06 11:00:31;;;;;;;1.60;1.50;;;11.20;75.40;;;;;;4970478;28;20081;-65
2023/01/06 11:03:05;;;;;;;1.90;1.58;;;11.20;75.40;;;;;;4969068;28;20036;-65
2023/01/06 11:05:33;;;;;;;1.73;1.63;;;11.20;75.40;;;;;;4978105;28;20026;-65
2023/01/06 11:08:12;;;;;;;1.90;1.70;;;11.10;75.40;;;;;;4983113;28;20053;-65
2023/01/06 11:10:41;;;;;;;1.90;1.77;;;11.10;75.70;;;;;;4977855;28;20054;-65
2023/01/06 11:13:20;;;;;;;1.63;1.52;;;11.20;75.80;;;;;;4972718;28;20026;-65
2023/01/06 11:15:46;;;;;;;1.85;1.75;;;11.10;75.90;;;;;;4975235;28;20521;-64
2023/01/06 11:18:25;;;;;;;2.45;2.00;;;11.20;75.80;;;;;;4956889;28;20053;-66
2023/01/06 11:21:01;;;;;;;3.08;1.92;;;11.20;75.70;;;;;;4973831;28;20098;-65
2023/01/06 11:23:28;;;;;;;4.18;2.13;;;11.20;75.80;;;;;;5044211;28;20081;-65
2023/01/06 11:26:20;;;;;;;2.25;1.95;;;11.20;75.70;;;;;;5040566;28;20076;-64
2023/01/06 11:28:48;;;;;;;4.07;2.20;;;11.20;75.90;;;;;;5045180;28;20041;-64
2023/01/06 11:31:13;;;;;;;3.65;2.80;;;11.30;75.80;;;;;;5040795;28;20041;-65
2023/01/06 11:33:54;;;;;;;4.88;2.92;;;11.30;75.80;;;;;;5039555;28;20028;-64
2023/01/06 11:36:23;;;;;;;4.60;2.35;;;11.30;75.90;;;;;;5033629;28;20032;-64
2023/01/06 11:38:59;;;;;;;3.63;2.70;;;11.30;75.90;;;;;;5050275;28;20031;-65
2023/01/06 11:41:31;;;;;;;3.33;2.63;;;11.30;76.00;;;;;;5038717;28;20029;-65
2023/01/06 11:44:22;;;;;;;3.88;3.25;;;11.40;76.10;;;;;;5040722;28;20029;-64
2023/01/06 11:46:56;;;;;;;3.13;2.65;;;11.40;76.10;;;;;;5039596;28;20025;-64
2023/01/06 11:49:44;;;;;;;4.20;2.80;;;11.50;76.00;;;;;;5035186;28;20038;-65
2023/01/06 11:52:31;;;;;;;2.40;2.20;;;11.60;75.90;;;;;;5044848;28;20064;-65
2023/01/06 11:55:18;;;;;;;2.80;2.30;;;11.70;75.90;;;;;;5041297;28;20381;-65
2023/01/06 11:58:20;;;;;;;2.95;2.13;;;11.70;75.60;;;;;;5046859;28;20801;-65
2023/01/06 12:00:51;;;;;;;3.17;2.20;;;11.70;75.50;;;;;;5013255;28;20034;-65
2023/01/06 12:03:34;;;;;;;2.40;2.15;;;11.80;75.40;;;;;;4996126;28;20046;-65
2023/01/06 12:06:20;;;;;;;2.33;2.13;;;11.80;75.40;;;;;;5022140;28;20125;-65
2023/01/06 12:09:08;;;;;;;3.45;2.90;;;11.90;75.40;;;;;;5015772;28;20065;-65
2023/01/06 12:11:54;;;;;;;3.13;2.72;;;11.90;75.30;;;;;;5015085;28;20051;-65
2023/01/06 12:14:23;;;;;;;5.35;2.72;;;12.00;75.10;;;;;;5016808;28;20905;-65
2023/01/06 12:17:14;;;;;;;4.07;3.17;;;12.00;75.00;;;;;;5019828;28;20050;-65
2023/01/06 12:20:14;;;;;;;3.38;3.08;;;12.00;74.90;;;;;;5017191;28;20061;-66
2023/01/06 12:22:56;;;;;;;3.40;2.70;;;12.00;74.90;;;;;;5020033;28;20088;-65
2023/01/06 12:25:31;;;;;;;2.92;2.58;;;12.00;74.70;;;;;;5022249;28;20072;-66
2023/01/06 12:28:04;;;;;;;2.95;2.58;;;12.00;74.60;;;;;;5015156;28;20113;-64
2023/01/06 12:30:59;;;;;;;2.80;2.53;;;12.00;74.60;;;;;;5013137;28;20064;-64
2023/01/06 12:33:32;;;;;;;3.55;2.92;;;12.00;74.60;;;;;;4999887;28;20041;-65
2023/01/06 12:36:04;;;;;;;3.63;3.13;;;12.00;74.70;;;;;;5022258;28;20041;-65
2023/01/06 12:39:01;;;;;;;3.53;2.85;;;12.00;74.80;;;;;;5040794;28;20401;-65
2023/01/06 12:41:44;;;;;;;3.45;2.60;;;12.10;74.80;;;;;;5040284;28;20021;-65
2023/01/06 12:44:31;;;;;;;3.03;2.60;;;12.10;74.70;;;;;;5041685;28;20034;-64
2023/01/06 12:47:18;;;;;;;3.58;3.15;;;12.10;74.80;;;;;;5043903;28;20622;-64
2023/01/06 12:49:49;;;;;;;3.80;2.80;;;12.10;74.70;;;;;;5036537;28;20037;-65
2023/01/06 12:52:39;;;;;;;2.55;2.35;;;12.10;74.60;;;;;;5037562;28;20040;-65
2023/01/06 12:55:05;;;;;;;3.03;2.72;;;12.10;74.60;;;;;;5042235;28;20033;-65
2023/01/06 12:57:42;;;;;;;3.28;2.72;;;12.10;74.70;;;;;;5033670;28;20034;-65
2023/01/06 13:00:32;;;;;;;2.53;2.33;;;12.10;74.70;;;;;;5039044;28;20048;-65
2023/01/06 13:03:21;;;;;;;3.30;2.63;;;12.20;74.80;;;;;;5035551;28;20425;-65
2023/01/06 13:06:04;;;;;;;3.15;2.72;;;12.20;74.90;;;;;;5034959;28;20033;-65
2023/01/06 13:08:56;;;;;;;3.60;3.17;;;12.20;74.80;;;;;;5035100;28;20040;-65
2023/01/06 13:12:06;;;;;;;13.23;7.40;;;12.30;74.80;;;;;;5037976;28;20037;-65
2023/01/06 13:15:00;;;;;;;5.65;3.40;;;12.40;74.70;;;;;;5038819;28;20041;-65
2023/01/06 13:17:44;;;;;;;3.60;2.53;;;12.40;74.70;;;;;;5042750;28;20041;-66
2023/01/06 13:20:33;;;;;;;1.90;1.80;;;12.40;74.60;;;;;;5045807;28;20029;-65
2023/01/06 13:23:10;;;;;;;5.95;2.83;;;12.50;74.40;;;;;;5037714;28;20029;-65
2023/01/06 13:26:08;;;;;;;5.80;4.32;;;12.50;74.30;;;;;;5039974;28;20116;-65